Decoded Metar for KFOD (FORT DODGE in IA, USA) (IATA:FOD) | Meteo·Mobile Aviation Weather
aviador You're here:

KFOD Decoded Metar

FORT DODGE in IA, USA
Report Time2020-02-22 21:56:00
UTC Time2020-02-22 22:05:13
Flight Rules vfr VFR
Wind190° at 13 kt
W.Decomp.*RWY 24: 8.0 kt HW 10.2 kt LCW
RWY 12: 4.9 kt HW 12.1 kt RCW
Visibility9999 m
Phenomena:N/A
Clouds:N/A
Expected CloudBase > 2,400 ft AGL from Temp-Dew spread
CeilingNone
Temp09°C (ISA -4)
Dew Point03°C (66% RH)
AAT2.8°C
QNH1013 hPa
Density Alt833 ft
Elevation1,165 ft
Report Wrong Elevation
Raw Report
METAR KFOD 222156Z AUTO 19013KT 10SM CLR 09/03 A2992 RMK AO2 SLP167
T00890028=

Extra information for KFOD:More info

Metar Taf Metar & Taf Last 4 Metars F.Rules Stats Wind Profile Meteogram Temp Stats Airport Information Weather charts Add Link Nearby VenuesMetar ALERT Operation Metar Decoded Social comments

AIRNAV info for KFOD